createdAt,value
2022-07-25T00:11:54.489Z,4759.61328
2022-07-25T00:26:56.714Z,5677.73584
2022-07-25T00:41:59.689Z,2653.6853
2022-07-25T00:57:02.172Z,8058.1416
2022-07-25T01:12:04.641Z,2931.75879
2022-07-25T01:27:07.799Z,2523.03857
2022-07-25T01:42:19.536Z,4413.21973
2022-07-25T01:57:21.988Z,2403.1792
2022-07-25T02:12:27.599Z,1096.71277
2022-07-25T02:27:29.914Z,720.35449
2022-07-25T02:42:32.341Z,486.62881
2022-07-25T02:57:34.642Z,341.59906
2022-07-25T03:12:37.105Z,250.50597
2022-07-25T03:27:39.471Z,117.46213
2022-07-25T03:42:41.996Z,32.36201
2022-07-25T03:57:44.271Z,7.19156
2022-07-25T04:12:46.555Z,1.19859
2022-07-25T04:27:48.844Z,0
2022-07-25T04:42:51.108Z,0
2022-07-25T04:57:53.429Z,0
2022-07-25T05:12:55.730Z,0
2022-07-25T05:27:58.191Z,0
2022-07-25T05:43:03.282Z,0
2022-07-25T05:58:06.172Z,0
2022-07-25T06:13:08.451Z,0
2022-07-25T06:28:12.666Z,0
2022-07-25T06:43:20.539Z,0
2022-07-25T06:58:24.050Z,0
2022-07-25T07:13:28.497Z,0
2022-07-25T07:28:30.878Z,0
2022-07-25T07:43:33.166Z,0
2022-07-25T07:58:35.624Z,0
2022-07-25T08:13:37.923Z,0
2022-07-25T08:28:40.240Z,0
2022-07-25T08:43:42.697Z,0
2022-07-25T08:58:44.995Z,0
2022-07-25T09:13:47.292Z,0
2022-07-25T09:28:49.786Z,0
2022-07-25T09:43:52.142Z,0
2022-07-25T09:58:54.436Z,0
2022-07-25T10:13:56.747Z,0
2022-07-25T10:28:59.045Z,0
2022-07-25T10:44:01.420Z,0
2022-07-25T10:59:03.902Z,0
2022-07-25T11:14:06.415Z,0
2022-07-25T11:29:09.344Z,0
2022-07-25T11:44:11.944Z,1.19859
2022-07-25T11:59:14.293Z,13.18452
2022-07-25T12:14:16.599Z,51.53951
2022-07-25T12:29:18.877Z,128.24947
2022-07-25T12:44:21.312Z,237.32144
2022-07-25T12:59:23.601Z,383.5498
2022-07-25T13:14:26.468Z,636.45294
2022-07-25T13:29:28.871Z,1030.79016
2022-07-25T13:44:31.844Z,1366.39624
2022-07-25T13:59:34.141Z,1666.04443
2022-07-25T14:14:36.623Z,2585.36548
2022-07-25T14:29:38.941Z,2851.45312
2022-07-25T14:44:41.329Z,3188.25781
2022-07-25T14:59:43.649Z,3533.45264
2022-07-25T15:14:46.639Z,3795.94458
2022-07-25T15:29:48.961Z,3928.98828
2022-07-25T15:45:03.856Z,4040.45752
2022-07-25T16:00:17.843Z,4486.33398
2022-07-25T16:15:20.137Z,4510.30615
2022-07-25T16:30:22.547Z,4559.44824
2022-07-25T16:45:24.824Z,4451.57471
2022-07-25T17:00:27.127Z,4317.33252
2022-07-25T17:15:29.456Z,4195.07617
2022-07-25T17:30:31.854Z,4094.39429
2022-07-25T17:45:34.184Z,3921.79688
2022-07-25T18:00:36.462Z,3841.49097
2022-07-25T18:15:38.883Z,3816.32056
2022-07-25T18:30:41.264Z,3774.36987
2022-07-25T18:45:43.751Z,3692.86548
2022-07-25T19:00:47.138Z,3642.52466
2022-07-25T19:15:49.569Z,3661.70215
2022-07-25T19:30:51.962Z,3734.81616
2022-07-25T19:45:54.450Z,3782.76001
2022-07-25T20:00:56.865Z,3863.06567
2022-07-25T20:15:59.180Z,3900.22217
2022-07-25T20:31:01.617Z,3982.92505
2022-07-25T20:46:08.848Z,4428.80176
2022-07-25T21:01:11.761Z,4165.11133
2022-07-25T21:16:14.061Z,3980.52783
2022-07-25T21:31:16.412Z,3917.00244
2022-07-25T21:46:18.826Z,4091.99707
2022-07-25T22:01:21.659Z,4757.21631
2022-07-25T22:16:24.120Z,5473.9751
2022-07-25T22:31:26.491Z,5694.51611
2022-07-25T22:46:29.032Z,5802.38916
2022-07-25T23:01:31.483Z,6368.12549
2022-07-25T23:16:33.864Z,7086.08252
2022-07-25T23:31:36.269Z,7667.40039
2022-07-25T23:46:38.691Z,8031.77246
